sensor_id;sensor_type;location;lat;lon;timestamp;temperature;humidity
14405;DHT22;14983;50.866;4.304;2022-07-29T00:02:20;19.40;99.90
14405;DHT22;14983;50.866;4.304;2022-07-29T00:04:47;19.40;99.90
14405;DHT22;14983;50.866;4.304;2022-07-29T00:07:13;19.40;99.90
14405;DHT22;14983;50.866;4.304;2022-07-29T00:09:40;19.30;99.90
14405;DHT22;14983;50.866;4.304;2022-07-29T00:12:08;19.30;99.90
14405;DHT22;14983;50.866;4.304;2022-07-29T00:14:36;19.40;99.90
14405;DHT22;14983;50.866;4.304;2022-07-29T00:17:03;19.30;99.90
14405;DHT22;14983;50.866;4.304;2022-07-29T00:19:30;19.20;99.90
14405;DHT22;14983;50.866;4.304;2022-07-29T00:21:57;19.20;99.90
14405;DHT22;14983;50.866;4.304;2022-07-29T00:24:24;19.30;99.90
14405;DHT22;14983;50.866;4.304;2022-07-29T00:26:51;19.30;99.90
14405;DHT22;14983;50.866;4.304;2022-07-29T00:29:18;19.40;99.90
14405;DHT22;14983;50.866;4.304;2022-07-29T00:31:46;19.40;99.90
14405;DHT22;14983;50.866;4.304;2022-07-29T00:34:13;19.40;99.90
14405;DHT22;14983;50.866;4.304;2022-07-29T00:36:54;19.20;99.90
14405;DHT22;14983;50.866;4.304;2022-07-29T00:39:21;19.20;99.90
14405;DHT22;14983;50.866;4.304;2022-07-29T00:41:50;19.10;99.90
14405;DHT22;14983;50.866;4.304;2022-07-29T00:44:17;19.10;99.90
14405;DHT22;14983;50.866;4.304;2022-07-29T00:46:45;19.10;99.90
14405;DHT22;14983;50.866;4.304;2022-07-29T00:49:13;18.90;99.90
14405;DHT22;14983;50.866;4.304;2022-07-29T00:51:40;18.90;99.90
14405;DHT22;14983;50.866;4.304;2022-07-29T00:54:07;19.00;99.90
14405;DHT22;14983;50.866;4.304;2022-07-29T00:56:34;19.00;99.90
14405;DHT22;14983;50.866;4.304;2022-07-29T00:59:01;18.90;99.90
14405;DHT22;14983;50.866;4.304;2022-07-29T01:01:29;18.80;99.90
14405;DHT22;14983;50.866;4.304;2022-07-29T01:03:57;18.70;99.90
14405;DHT22;14983;50.866;4.304;2022-07-29T01:06:24;18.60;99.90
14405;DHT22;14983;50.866;4.304;2022-07-29T01:08:53;18.70;99.90
14405;DHT22;14983;50.866;4.304;2022-07-29T01:11:21;18.80;99.90
14405;DHT22;14983;50.866;4.304;2022-07-29T01:13:48;18.80;99.90
14405;DHT22;14983;50.866;4.304;2022-07-29T01:16:23;18.80;99.90
14405;DHT22;14983;50.866;4.304;2022-07-29T01:19:00;18.80;99.90
14405;DHT22;14983;50.866;4.304;2022-07-29T01:21:44;18.70;99.90
14405;DHT22;14983;50.866;4.304;2022-07-29T01:24:39;18.70;99.90
14405;DHT22;14983;50.866;4.304;2022-07-29T01:27:27;18.60;99.90
14405;DHT22;14983;50.866;4.304;2022-07-29T01:30:02;18.60;99.90
14405;DHT22;14983;50.866;4.304;2022-07-29T01:32:33;18.60;99.90
14405;DHT22;14983;50.866;4.304;2022-07-29T01:35:04;18.60;99.90
14405;DHT22;14983;50.866;4.304;2022-07-29T01:37:38;18.50;1.00
14405;DHT22;14983;50.866;4.304;2022-07-29T01:40:09;18.40;1.00
14405;DHT22;14983;50.866;4.304;2022-07-29T01:42:42;18.30;1.00
14405;DHT22;14983;50.866;4.304;2022-07-29T01:45:16;18.30;1.00
14405;DHT22;14983;50.866;4.304;2022-07-29T01:47:52;18.30;1.00
14405;DHT22;14983;50.866;4.304;2022-07-29T01:50:25;18.30;1.00
14405;DHT22;14983;50.866;4.304;2022-07-29T01:52:58;18.20;1.00
14405;DHT22;14983;50.866;4.304;2022-07-29T01:55:28;18.20;1.00
14405;DHT22;14983;50.866;4.304;2022-07-29T01:57:57;18.10;1.00
14405;DHT22;14983;50.866;4.304;2022-07-29T02:00:30;18.00;1.00
14405;DHT22;14983;50.866;4.304;2022-07-29T02:02:59;18.00;1.00
14405;DHT22;14983;50.866;4.304;2022-07-29T02:05:28;17.90;1.00
14405;DHT22;14983;50.866;4.304;2022-07-29T02:07:58;17.90;1.00
14405;DHT22;14983;50.866;4.304;2022-07-29T02:10:28;17.90;1.00
14405;DHT22;14983;50.866;4.304;2022-07-29T02:12:57;17.90;1.00
14405;DHT22;14983;50.866;4.304;2022-07-29T02:15:30;17.90;1.00
14405;DHT22;14983;50.866;4.304;2022-07-29T02:18:01;17.90;1.00
14405;DHT22;14983;50.866;4.304;2022-07-29T02:20:30;17.70;1.00
14405;DHT22;14983;50.866;4.304;2022-07-29T02:22:59;17.80;1.00
14405;DHT22;14983;50.866;4.304;2022-07-29T02:25:28;17.80;1.00
14405;DHT22;14983;50.866;4.304;2022-07-29T02:27:55;17.80;1.00
14405;DHT22;14983;50.866;4.304;2022-07-29T02:30:30;17.60;1.00
14405;DHT22;14983;50.866;4.304;2022-07-29T02:32:58;17.70;1.00
14405;DHT22;14983;50.866;4.304;2022-07-29T02:35:25;17.80;1.00
14405;DHT22;14983;50.866;4.304;2022-07-29T02:37:56;17.80;1.00
14405;DHT22;14983;50.866;4.304;2022-07-29T02:40:43;17.80;1.00
14405;DHT22;14983;50.866;4.304;2022-07-29T02:43:12;17.90;1.00
14405;DHT22;14983;50.866;4.304;2022-07-29T02:45:42;17.80;1.00
14405;DHT22;14983;50.866;4.304;2022-07-29T02:48:12;17.70;1.00
14405;DHT22;14983;50.866;4.304;2022-07-29T02:50:44;17.80;1.00
14405;DHT22;14983;50.866;4.304;2022-07-29T02:53:18;17.70;1.00
14405;DHT22;14983;50.866;4.304;2022-07-29T02:55:51;17.60;26.30
14405;DHT22;14983;50.866;4.304;2022-07-29T02:58:25;17.50;97.70
14405;DHT22;14983;50.866;4.304;2022-07-29T03:01:01;17.50;99.90
14405;DHT22;14983;50.866;4.304;2022-07-29T03:03:32;17.50;99.90
14405;DHT22;14983;50.866;4.304;2022-07-29T03:06:02;17.50;99.90
14405;DHT22;14983;50.866;4.304;2022-07-29T03:08:31;17.40;99.90
14405;DHT22;14983;50.866;4.304;2022-07-29T03:11:01;17.30;99.90
14405;DHT22;14983;50.866;4.304;2022-07-29T03:13:36;17.30;99.90
14405;DHT22;14983;50.866;4.304;2022-07-29T03:16:06;17.30;99.90
14405;DHT22;14983;50.866;4.304;2022-07-29T03:18:40;17.20;99.90
14405;DHT22;14983;50.866;4.304;2022-07-29T03:21:08;17.20;99.90
14405;DHT22;14983;50.866;4.304;2022-07-29T03:23:35;17.20;99.90
14405;DHT22;14983;50.866;4.304;2022-07-29T03:26:04;17.10;99.90
14405;DHT22;14983;50.866;4.304;2022-07-29T03:28:31;17.10;99.90
14405;DHT22;14983;50.866;4.304;2022-07-29T03:30:58;17.30;99.90
14405;DHT22;14983;50.866;4.304;2022-07-29T03:33:31;17.20;99.90
14405;DHT22;14983;50.866;4.304;2022-07-29T03:35:58;17.20;99.90
14405;DHT22;14983;50.866;4.304;2022-07-29T03:38:30;17.20;99.90
14405;DHT22;14983;50.866;4.304;2022-07-29T03:41:03;17.10;99.90
14405;DHT22;14983;50.866;4.304;2022-07-29T03:43:32;17.00;1.00
14405;DHT22;14983;50.866;4.304;2022-07-29T03:46:02;16.90;1.00
14405;DHT22;14983;50.866;4.304;2022-07-29T03:48:34;16.90;1.00
14405;DHT22;14983;50.866;4.304;2022-07-29T03:51:03;16.90;1.00
14405;DHT22;14983;50.866;4.304;2022-07-29T03:53:31;16.80;1.00
14405;DHT22;14983;50.866;4.304;2022-07-29T03:56:02;16.90;1.00
14405;DHT22;14983;50.866;4.304;2022-07-29T03:58:30;16.90;1.00
14405;DHT22;14983;50.866;4.304;2022-07-29T04:01:02;16.90;1.00
14405;DHT22;14983;50.866;4.304;2022-07-29T04:03:30;16.90;1.00
14405;DHT22;14983;50.866;4.304;2022-07-29T04:06:04;16.70;1.00
14405;DHT22;14983;50.866;4.304;2022-07-29T04:08:32;16.70;1.00
14405;DHT22;14983;50.866;4.304;2022-07-29T04:11:02;16.80;1.00
14405;DHT22;14983;50.866;4.304;2022-07-29T04:13:30;16.90;1.00
14405;DHT22;14983;50.866;4.304;2022-07-29T04:15:58;16.80;1.00
14405;DHT22;14983;50.866;4.304;2022-07-29T04:18:27;16.70;3.70
14405;DHT22;14983;50.866;4.304;2022-07-29T04:20:57;16.70;81.80
14405;DHT22;14983;50.866;4.304;2022-07-29T04:23:29;16.70;1.00
14405;DHT22;14983;50.866;4.304;2022-07-29T04:25:58;16.70;68.40
14405;DHT22;14983;50.866;4.304;2022-07-29T04:28:27;16.70;52.20
14405;DHT22;14983;50.866;4.304;2022-07-29T04:30:58;16.70;19.10
14405;DHT22;14983;50.866;4.304;2022-07-29T04:33:25;16.70;1.00
14405;DHT22;14983;50.866;4.304;2022-07-29T04:35:53;16.80;1.00
14405;DHT22;14983;50.866;4.304;2022-07-29T04:38:21;16.80;47.70
14405;DHT22;14983;50.866;4.304;2022-07-29T04:40:51;16.80;13.00
14405;DHT22;14983;50.866;4.304;2022-07-29T04:43:19;16.80;1.00
14405;DHT22;14983;50.866;4.304;2022-07-29T04:45:46;16.70;36.40
14405;DHT22;14983;50.866;4.304;2022-07-29T04:48:21;16.60;99.90
14405;DHT22;14983;50.866;4.304;2022-07-29T04:50:48;16.60;99.90
14405;DHT22;14983;50.866;4.304;2022-07-29T04:53:29;16.70;99.90
14405;DHT22;14983;50.866;4.304;2022-07-29T04:56:09;16.70;99.90
14405;DHT22;14983;50.866;4.304;2022-07-29T04:58:46;16.70;99.90
14405;DHT22;14983;50.866;4.304;2022-07-29T05:01:19;16.70;99.90
14405;DHT22;14983;50.866;4.304;2022-07-29T05:03:46;16.80;88.10
14405;DHT22;14983;50.866;4.304;2022-07-29T05:06:15;16.80;51.20
14405;DHT22;14983;50.866;4.304;2022-07-29T05:08:45;16.80;1.00
14405;DHT22;14983;50.866;4.304;2022-07-29T05:11:15;16.90;74.20
14405;DHT22;14983;50.866;4.304;2022-07-29T05:13:44;17.00;1.00
14405;DHT22;14983;50.866;4.304;2022-07-29T05:16:11;17.10;1.00
14405;DHT22;14983;50.866;4.304;2022-07-29T05:18:39;17.20;1.00
14405;DHT22;14983;50.866;4.304;2022-07-29T05:21:06;17.20;1.00
14405;DHT22;14983;50.866;4.304;2022-07-29T05:23:36;17.30;1.00
14405;DHT22;14983;50.866;4.304;2022-07-29T05:26:04;17.40;1.00
14405;DHT22;14983;50.866;4.304;2022-07-29T05:28:36;17.40;1.00
14405;DHT22;14983;50.866;4.304;2022-07-29T05:31:05;17.40;1.00
14405;DHT22;14983;50.866;4.304;2022-07-29T05:33:34;17.40;1.00
14405;DHT22;14983;50.866;4.304;2022-07-29T05:36:01;17.30;1.00
14405;DHT22;14983;50.866;4.304;2022-07-29T05:38:29;17.30;1.00
14405;DHT22;14983;50.866;4.304;2022-07-29T05:40:58;17.40;1.00
14405;DHT22;14983;50.866;4.304;2022-07-29T05:43:27;17.40;1.00
14405;DHT22;14983;50.866;4.304;2022-07-29T05:45:56;17.50;1.00
14405;DHT22;14983;50.866;4.304;2022-07-29T05:48:23;17.50;1.00
14405;DHT22;14983;50.866;4.304;2022-07-29T05:50:52;17.50;1.00
14405;DHT22;14983;50.866;4.304;2022-07-29T05:53:19;17.30;1.00
14405;DHT22;14983;50.866;4.304;2022-07-29T05:55:47;17.30;1.00
14405;DHT22;14983;50.866;4.304;2022-07-29T05:58:15;17.20;1.00
14405;DHT22;14983;50.866;4.304;2022-07-29T06:00:44;17.30;1.00
14405;DHT22;14983;50.866;4.304;2022-07-29T06:03:13;17.30;1.00
14405;DHT22;14983;50.866;4.304;2022-07-29T06:05:41;17.40;1.00
14405;DHT22;14983;50.866;4.304;2022-07-29T06:08:10;17.40;1.00
14405;DHT22;14983;50.866;4.304;2022-07-29T06:10:37;17.50;1.00
14405;DHT22;14983;50.866;4.304;2022-07-29T06:13:04;17.70;1.00
14405;DHT22;14983;50.866;4.304;2022-07-29T06:15:31;18.00;99.90
14405;DHT22;14983;50.866;4.304;2022-07-29T06:17:59;18.10;99.90
14405;DHT22;14983;50.866;4.304;2022-07-29T06:20:32;18.20;99.90
14405;DHT22;14983;50.866;4.304;2022-07-29T06:22:59;18.40;99.90
14405;DHT22;14983;50.866;4.304;2022-07-29T06:25:27;18.50;22.00
14405;DHT22;14983;50.866;4.304;2022-07-29T06:27:55;18.70;1.00
14405;DHT22;14983;50.866;4.304;2022-07-29T06:30:24;18.70;1.00
14405;DHT22;14983;50.866;4.304;2022-07-29T06:32:52;18.70;1.00
14405;DHT22;14983;50.866;4.304;2022-07-29T06:35:19;18.90;1.00
14405;DHT22;14983;50.866;4.304;2022-07-29T06:37:48;18.90;1.00
14405;DHT22;14983;50.866;4.304;2022-07-29T06:40:15;18.90;1.00
14405;DHT22;14983;50.866;4.304;2022-07-29T06:43:02;19.10;1.00
14405;DHT22;14983;50.866;4.304;2022-07-29T06:45:29;19.30;1.00
14405;DHT22;14983;50.866;4.304;2022-07-29T06:47:56;19.70;1.00
14405;DHT22;14983;50.866;4.304;2022-07-29T06:50:25;19.80;99.90
14405;DHT22;14983;50.866;4.304;2022-07-29T06:52:53;19.60;1.00
14405;DHT22;14983;50.866;4.304;2022-07-29T06:55:21;19.50;1.00
14405;DHT22;14983;50.866;4.304;2022-07-29T06:57:48;19.60;1.00
14405;DHT22;14983;50.866;4.304;2022-07-29T07:00:15;19.60;1.00
14405;DHT22;14983;50.866;4.304;2022-07-29T07:02:43;19.60;1.00
14405;DHT22;14983;50.866;4.304;2022-07-29T07:05:09;19.90;1.00
14405;DHT22;14983;50.866;4.304;2022-07-29T07:07:36;20.10;99.90
14405;DHT22;14983;50.866;4.304;2022-07-29T07:10:11;20.30;99.90
14405;DHT22;14983;50.866;4.304;2022-07-29T07:12:38;20.10;1.00
14405;DHT22;14983;50.866;4.304;2022-07-29T07:15:06;20.30;99.90
14405;DHT22;14983;50.866;4.304;2022-07-29T07:17:33;20.30;99.90
14405;DHT22;14983;50.866;4.304;2022-07-29T07:20:04;20.40;99.90
14405;DHT22;14983;50.866;4.304;2022-07-29T07:22:31;20.30;99.90
14405;DHT22;14983;50.866;4.304;2022-07-29T07:24:58;20.00;1.00
14405;DHT22;14983;50.866;4.304;2022-07-29T07:27:29;20.10;1.00
14405;DHT22;14983;50.866;4.304;2022-07-29T07:29:57;20.10;1.00
14405;DHT22;14983;50.866;4.304;2022-07-29T07:32:24;20.30;99.90
14405;DHT22;14983;50.866;4.304;2022-07-29T07:34:55;20.40;99.90
14405;DHT22;14983;50.866;4.304;2022-07-29T07:37:25;20.60;99.90
14405;DHT22;14983;50.866;4.304;2022-07-29T07:39:54;20.50;99.90
14405;DHT22;14983;50.866;4.304;2022-07-29T07:42:22;20.40;99.90
14405;DHT22;14983;50.866;4.304;2022-07-29T07:44:50;20.40;1.00
14405;DHT22;14983;50.866;4.304;2022-07-29T07:47:19;20.60;1.00
14405;DHT22;14983;50.866;4.304;2022-07-29T07:49:46;20.80;99.90
14405;DHT22;14983;50.866;4.304;2022-07-29T07:52:13;20.80;99.90
14405;DHT22;14983;50.866;4.304;2022-07-29T07:54:40;21.00;99.90
14405;DHT22;14983;50.866;4.304;2022-07-29T07:57:08;21.00;99.90
14405;DHT22;14983;50.866;4.304;2022-07-29T07:59:38;21.00;99.90
14405;DHT22;14983;50.866;4.304;2022-07-29T08:02:09;20.80;99.90
14405;DHT22;14983;50.866;4.304;2022-07-29T08:04:36;20.80;99.90
14405;DHT22;14983;50.866;4.304;2022-07-29T08:07:08;20.90;1.00
14405;DHT22;14983;50.866;4.304;2022-07-29T08:09:36;21.00;99.90
14405;DHT22;14983;50.866;4.304;2022-07-29T08:12:05;21.20;99.90
14405;DHT22;14983;50.866;4.304;2022-07-29T08:14:33;21.20;99.90
14405;DHT22;14983;50.866;4.304;2022-07-29T08:17:00;21.40;99.90
14405;DHT22;14983;50.866;4.304;2022-07-29T08:19:32;21.40;99.90
14405;DHT22;14983;50.866;4.304;2022-07-29T08:21:59;21.30;99.90
14405;DHT22;14983;50.866;4.304;2022-07-29T08:24:26;21.20;99.90
14405;DHT22;14983;50.866;4.304;2022-07-29T08:27:19;21.20;99.90
14405;DHT22;14983;50.866;4.304;2022-07-29T08:29:48;21.40;99.90
14405;DHT22;14983;50.866;4.304;2022-07-29T08:32:16;21.50;99.90
14405;DHT22;14983;50.866;4.304;2022-07-29T08:34:47;21.50;99.90
14405;DHT22;14983;50.866;4.304;2022-07-29T08:37:14;21.60;99.90
14405;DHT22;14983;50.866;4.304;2022-07-29T08:39:41;21.60;99.90
14405;DHT22;14983;50.866;4.304;2022-07-29T08:42:08;21.70;99.90
14405;DHT22;14983;50.866;4.304;2022-07-29T08:44:40;21.60;99.90
14405;DHT22;14983;50.866;4.304;2022-07-29T08:47:07;21.90;99.90
14405;DHT22;14983;50.866;4.304;2022-07-29T08:49:34;22.00;99.90
14405;DHT22;14983;50.866;4.304;2022-07-29T08:52:06;22.00;99.90
14405;DHT22;14983;50.866;4.304;2022-07-29T08:54:37;22.10;99.90
14405;DHT22;14983;50.866;4.304;2022-07-29T08:57:05;22.10;99.90
14405;DHT22;14983;50.866;4.304;2022-07-29T08:59:34;22.10;99.90
14405;DHT22;14983;50.866;4.304;2022-07-29T09:02:02;22.10;99.90
14405;DHT22;14983;50.866;4.304;2022-07-29T09:04:34;22.20;99.90
14405;DHT22;14983;50.866;4.304;2022-07-29T09:07:05;22.30;99.90
14405;DHT22;14983;50.866;4.304;2022-07-29T09:09:34;22.40;99.90
14405;DHT22;14983;50.866;4.304;2022-07-29T09:12:05;22.70;75.00
14405;DHT22;14983;50.866;4.304;2022-07-29T09:14:34;22.70;19.20
14405;DHT22;14983;50.866;4.304;2022-07-29T09:17:01;22.70;1.00
14405;DHT22;14983;50.866;4.304;2022-07-29T09:19:29;22.70;1.00
14405;DHT22;14983;50.866;4.304;2022-07-29T09:21:58;22.70;1.00
14405;DHT22;14983;50.866;4.304;2022-07-29T09:24:35;22.90;1.00
14405;DHT22;14983;50.866;4.304;2022-07-29T09:27:08;23.20;1.00
14405;DHT22;14983;50.866;4.304;2022-07-29T09:29:36;23.20;1.00
14405;DHT22;14983;50.866;4.304;2022-07-29T09:32:08;23.30;1.00
14405;DHT22;14983;50.866;4.304;2022-07-29T09:34:36;23.40;1.00
14405;DHT22;14983;50.866;4.304;2022-07-29T09:37:06;23.30;1.00
14405;DHT22;14983;50.866;4.304;2022-07-29T09:39:37;23.30;1.00
14405;DHT22;14983;50.866;4.304;2022-07-29T09:42:11;23.40;1.00
14405;DHT22;14983;50.866;4.304;2022-07-29T09:44:44;23.70;1.00
14405;DHT22;14983;50.866;4.304;2022-07-29T09:47:13;23.70;1.00
14405;DHT22;14983;50.866;4.304;2022-07-29T09:49:51;23.80;1.00
14405;DHT22;14983;50.866;4.304;2022-07-29T09:52:23;24.00;1.00
14405;DHT22;14983;50.866;4.304;2022-07-29T09:54:53;25.10;1.00
14405;DHT22;14983;50.866;4.304;2022-07-29T09:57:25;23.30;1.00
14405;DHT22;14983;50.866;4.304;2022-07-29T10:00:00;23.90;1.00
14405;DHT22;14983;50.866;4.304;2022-07-29T10:02:31;24.20;1.00
14405;DHT22;14983;50.866;4.304;2022-07-29T10:04:59;24.00;1.00
14405;DHT22;14983;50.866;4.304;2022-07-29T10:07:43;24.00;1.00
14405;DHT22;14983;50.866;4.304;2022-07-29T10:10:19;24.10;1.00
14405;DHT22;14983;50.866;4.304;2022-07-29T10:12:54;24.00;1.00
14405;DHT22;14983;50.866;4.304;2022-07-29T10:15:22;24.20;1.00
14405;DHT22;14983;50.866;4.304;2022-07-29T10:17:51;24.60;1.00
14405;DHT22;14983;50.866;4.304;2022-07-29T10:20:19;24.80;1.00
14405;DHT22;14983;50.866;4.304;2022-07-29T10:22:48;24.90;1.00
14405;DHT22;14983;50.866;4.304;2022-07-29T10:25:17;24.70;1.00
14405;DHT22;14983;50.866;4.304;2022-07-29T10:27:45;23.80;1.00
14405;DHT22;14983;50.866;4.304;2022-07-29T10:30:20;25.00;1.00
14405;DHT22;14983;50.866;4.304;2022-07-29T10:33:11;25.30;1.00
14405;DHT22;14983;50.866;4.304;2022-07-29T10:35:57;25.10;1.00
14405;DHT22;14983;50.866;4.304;2022-07-29T10:38:45;24.90;1.00
14405;DHT22;14983;50.866;4.304;2022-07-29T10:41:47;24.90;1.00
14405;DHT22;14983;50.866;4.304;2022-07-29T10:44:22;25.10;1.00
14405;DHT22;14983;50.866;4.304;2022-07-29T10:46:51;25.50;1.00
14405;DHT22;14983;50.866;4.304;2022-07-29T10:49:20;25.60;1.00
14405;DHT22;14983;50.866;4.304;2022-07-29T10:52:04;25.50;1.00
14405;DHT22;14983;50.866;4.304;2022-07-29T10:54:42;25.40;1.00
14405;DHT22;14983;50.866;4.304;2022-07-29T10:57:16;25.60;99.90
14405;DHT22;14983;50.866;4.304;2022-07-29T10:59:46;25.70;99.90
14405;DHT22;14983;50.866;4.304;2022-07-29T11:02:42;25.80;99.90
14405;DHT22;14983;50.866;4.304;2022-07-29T11:05:11;25.80;99.90
14405;DHT22;14983;50.866;4.304;2022-07-29T11:07:39;25.90;99.90
14405;DHT22;14983;50.866;4.304;2022-07-29T11:10:23;25.90;99.90
14405;DHT22;14983;50.866;4.304;2022-07-29T11:12:52;25.90;99.90
14405;DHT22;14983;50.866;4.304;2022-07-29T11:15:21;25.60;99.90
14405;DHT22;14983;50.866;4.304;2022-07-29T11:18:08;25.40;99.90
14405;DHT22;14983;50.866;4.304;2022-07-29T11:20:40;24.90;99.90
14405;DHT22;14983;50.866;4.304;2022-07-29T11:23:27;25.70;99.90
14405;DHT22;14983;50.866;4.304;2022-07-29T11:26:16;25.60;99.90
14405;DHT22;14983;50.866;4.304;2022-07-29T11:28:59;25.90;99.90
14405;DHT22;14983;50.866;4.304;2022-07-29T11:31:35;26.10;99.90
14405;DHT22;14983;50.866;4.304;2022-07-29T11:34:17;25.90;99.90
14405;DHT22;14983;50.866;4.304;2022-07-29T11:37:22;26.10;99.90
14405;DHT22;14983;50.866;4.304;2022-07-29T11:40:16;25.90;99.90
14405;DHT22;14983;50.866;4.304;2022-07-29T11:42:54;26.30;99.90
14405;DHT22;14983;50.866;4.304;2022-07-29T11:45:45;26.60;99.90
14405;DHT22;14983;50.866;4.304;2022-07-29T11:48:16;26.80;99.90
14405;DHT22;14983;50.866;4.304;2022-07-29T11:50:44;26.90;99.90
14405;DHT22;14983;50.866;4.304;2022-07-29T11:53:13;27.20;99.90
14405;DHT22;14983;50.866;4.304;2022-07-29T11:55:43;27.10;99.90
14405;DHT22;14983;50.866;4.304;2022-07-29T11:58:10;26.60;99.90
14405;DHT22;14983;50.866;4.304;2022-07-29T12:00:46;25.90;99.90
14405;DHT22;14983;50.866;4.304;2022-07-29T12:03:24;26.00;99.90
14405;DHT22;14983;50.866;4.304;2022-07-29T12:05:51;26.40;99.90
14405;DHT22;14983;50.866;4.304;2022-07-29T12:08:20;26.90;99.90
14405;DHT22;14983;50.866;4.304;2022-07-29T12:10:49;27.80;99.90
14405;DHT22;14983;50.866;4.304;2022-07-29T12:13:18;28.70;99.90
14405;DHT22;14983;50.866;4.304;2022-07-29T12:16:00;29.60;99.90
14405;DHT22;14983;50.866;4.304;2022-07-29T12:18:30;31.00;99.90
14405;DHT22;14983;50.866;4.304;2022-07-29T12:21:05;30.50;99.90
14405;DHT22;14983;50.866;4.304;2022-07-29T12:23:35;31.10;99.90
14405;DHT22;14983;50.866;4.304;2022-07-29T12:26:04;31.90;99.90
14405;DHT22;14983;50.866;4.304;2022-07-29T12:28:38;29.60;99.90
14405;DHT22;14983;50.866;4.304;2022-07-29T12:31:13;29.30;99.90
14405;DHT22;14983;50.866;4.304;2022-07-29T12:33:41;30.30;99.90
14405;DHT22;14983;50.866;4.304;2022-07-29T12:36:08;31.40;99.90
14405;DHT22;14983;50.866;4.304;2022-07-29T12:38:36;31.50;99.90
14405;DHT22;14983;50.866;4.304;2022-07-29T12:41:04;31.30;99.90
14405;DHT22;14983;50.866;4.304;2022-07-29T12:43:31;30.30;99.90
14405;DHT22;14983;50.866;4.304;2022-07-29T12:46:13;29.40;99.90
14405;DHT22;14983;50.866;4.304;2022-07-29T12:48:42;29.30;99.90
14405;DHT22;14983;50.866;4.304;2022-07-29T12:51:10;31.00;99.90
14405;DHT22;14983;50.866;4.304;2022-07-29T12:53:40;31.60;99.90
14405;DHT22;14983;50.866;4.304;2022-07-29T12:56:15;31.90;99.90
14405;DHT22;14983;50.866;4.304;2022-07-29T12:58:42;31.20;99.90
14405;DHT22;14983;50.866;4.304;2022-07-29T13:01:13;30.10;99.90
14405;DHT22;14983;50.866;4.304;2022-07-29T13:03:46;29.10;99.90
14405;DHT22;14983;50.866;4.304;2022-07-29T13:06:34;28.30;99.90
14405;DHT22;14983;50.866;4.304;2022-07-29T13:09:05;28.50;99.90
14405;DHT22;14983;50.866;4.304;2022-07-29T13:11:34;28.40;99.90
14405;DHT22;14983;50.866;4.304;2022-07-29T13:14:02;27.70;99.90
14405;DHT22;14983;50.866;4.304;2022-07-29T13:16:32;27.60;99.90
14405;DHT22;14983;50.866;4.304;2022-07-29T13:19:04;27.40;99.90
14405;DHT22;14983;50.866;4.304;2022-07-29T13:21:31;28.40;99.90
14405;DHT22;14983;50.866;4.304;2022-07-29T13:24:02;29.00;99.90
14405;DHT22;14983;50.866;4.304;2022-07-29T13:26:32;28.60;99.90
14405;DHT22;14983;50.866;4.304;2022-07-29T13:29:00;28.10;99.90
14405;DHT22;14983;50.866;4.304;2022-07-29T13:31:33;28.10;99.90
14405;DHT22;14983;50.866;4.304;2022-07-29T13:34:00;29.00;99.90
14405;DHT22;14983;50.866;4.304;2022-07-29T13:36:27;30.20;99.90
14405;DHT22;14983;50.866;4.304;2022-07-29T13:38:55;29.70;99.90
14405;DHT22;14983;50.866;4.304;2022-07-29T13:41:22;30.40;99.90
14405;DHT22;14983;50.866;4.304;2022-07-29T13:43:49;30.80;99.90
14405;DHT22;14983;50.866;4.304;2022-07-29T13:46:16;30.90;99.90
14405;DHT22;14983;50.866;4.304;2022-07-29T13:48:58;31.40;99.90
14405;DHT22;14983;50.866;4.304;2022-07-29T13:51:30;31.90;99.90
14405;DHT22;14983;50.866;4.304;2022-07-29T13:53:57;32.50;99.90
14405;DHT22;14983;50.866;4.304;2022-07-29T13:56:24;32.30;99.90
14405;DHT22;14983;50.866;4.304;2022-07-29T13:58:53;33.10;99.90
14405;DHT22;14983;50.866;4.304;2022-07-29T14:01:20;32.40;99.90
14405;DHT22;14983;50.866;4.304;2022-07-29T14:03:48;32.70;99.90
14405;DHT22;14983;50.866;4.304;2022-07-29T14:06:17;33.00;99.90
14405;DHT22;14983;50.866;4.304;2022-07-29T14:08:45;33.00;99.90
14405;DHT22;14983;50.866;4.304;2022-07-29T14:11:12;32.70;99.90
14405;DHT22;14983;50.866;4.304;2022-07-29T14:13:40;32.20;99.90
14405;DHT22;14983;50.866;4.304;2022-07-29T14:16:11;32.80;99.90
14405;DHT22;14983;50.866;4.304;2022-07-29T14:18:38;33.00;99.60
14405;DHT22;14983;50.866;4.304;2022-07-29T14:21:06;33.00;91.80
14405;DHT22;14983;50.866;4.304;2022-07-29T14:23:36;33.10;96.80
14405;DHT22;14983;50.866;4.304;2022-07-29T14:26:03;31.80;99.90
14405;DHT22;14983;50.866;4.304;2022-07-29T14:28:31;30.80;97.30
14405;DHT22;14983;50.866;4.304;2022-07-29T14:31:01;31.30;99.90
14405;DHT22;14983;50.866;4.304;2022-07-29T14:33:31;32.50;91.90
14405;DHT22;14983;50.866;4.304;2022-07-29T14:35:58;32.20;96.30
14405;DHT22;14983;50.866;4.304;2022-07-29T14:38:27;31.90;98.40
14405;DHT22;14983;50.866;4.304;2022-07-29T14:40:55;31.80;96.30
14405;DHT22;14983;50.866;4.304;2022-07-29T14:43:22;31.10;96.20
14405;DHT22;14983;50.866;4.304;2022-07-29T14:45:49;30.00;99.90
14405;DHT22;14983;50.866;4.304;2022-07-29T14:48:18;29.70;99.90
14405;DHT22;14983;50.866;4.304;2022-07-29T14:50:45;29.30;99.90
14405;DHT22;14983;50.866;4.304;2022-07-29T14:53:13;29.40;99.90
14405;DHT22;14983;50.866;4.304;2022-07-29T14:55:43;29.30;99.90
14405;DHT22;14983;50.866;4.304;2022-07-29T14:58:12;30.10;99.90
14405;DHT22;14983;50.866;4.304;2022-07-29T15:00:39;30.80;99.30
14405;DHT22;14983;50.866;4.304;2022-07-29T15:03:06;30.60;99.90
14405;DHT22;14983;50.866;4.304;2022-07-29T15:05:35;28.50;99.90
14405;DHT22;14983;50.866;4.304;2022-07-29T15:08:04;29.20;99.90
14405;DHT22;14983;50.866;4.304;2022-07-29T15:10:34;30.00;99.90
14405;DHT22;14983;50.866;4.304;2022-07-29T15:13:02;30.70;99.90
14405;DHT22;14983;50.866;4.304;2022-07-29T15:15:31;31.00;99.90
14405;DHT22;14983;50.866;4.304;2022-07-29T15:17:59;31.30;99.70
14405;DHT22;14983;50.866;4.304;2022-07-29T15:20:26;31.50;99.90
14405;DHT22;14983;50.866;4.304;2022-07-29T15:22:54;31.70;94.70
14405;DHT22;14983;50.866;4.304;2022-07-29T15:25:22;31.90;98.20
14405;DHT22;14983;50.866;4.304;2022-07-29T15:27:49;32.20;91.60
14405;DHT22;14983;50.866;4.304;2022-07-29T15:30:16;32.20;87.50
14405;DHT22;14983;50.866;4.304;2022-07-29T15:32:44;32.40;82.50
14405;DHT22;14983;50.866;4.304;2022-07-29T15:35:12;32.50;80.50
14405;DHT22;14983;50.866;4.304;2022-07-29T15:37:39;30.90;88.70
14405;DHT22;14983;50.866;4.304;2022-07-29T15:40:07;30.50;99.90
14405;DHT22;14983;50.866;4.304;2022-07-29T15:42:35;30.60;99.90
14405;DHT22;14983;50.866;4.304;2022-07-29T15:45:03;31.20;91.00
14405;DHT22;14983;50.866;4.304;2022-07-29T15:47:30;32.00;95.00
14405;DHT22;14983;50.866;4.304;2022-07-29T15:50:00;33.10;72.50
14405;DHT22;14983;50.866;4.304;2022-07-29T15:52:29;33.10;98.30
14405;DHT22;14983;50.866;4.304;2022-07-29T15:54:56;32.60;67.90
14405;DHT22;14983;50.866;4.304;2022-07-29T15:57:23;32.00;65.80
14405;DHT22;14983;50.866;4.304;2022-07-29T15:59:51;30.90;81.30